Time;durP1;ratioP1;P1;durP2;ratioP2;P2;SDS_P1;SDS_P2;PMS_P1;PMS_P2;Temp;Humidity;BMP_temperature;BMP_pressure;BME280_temperature;BME280_humidity;BME280_pressure;Samples;Min_cycle;Max_cycle;Signal;HPM_P1;HPM_P2
2022/01/30 00:01:45;;;;;;;21.80;5.05;;;7.00;99.70;;;;;;5078722;28;20043;-92
2022/01/30 00:04:11;;;;;;;19.65;4.30;;;7.00;99.70;;;;;;5078629;28;20048;-92
2022/01/30 00:06:37;;;;;;;22.17;4.25;;;7.00;99.70;;;;;;5095649;28;20058;-92
2022/01/30 00:09:04;;;;;;;17.73;3.67;;;7.00;99.60;;;;;;5095349;28;20047;-91
2022/01/30 00:11:34;;;;;;;16.85;3.45;;;7.00;99.60;;;;;;5095312;28;20040;-91
2022/01/30 00:14:01;;;;;;;15.18;3.15;;;6.90;99.80;;;;;;5078338;28;20047;-91
2022/01/30 00:16:31;;;;;;;19.15;3.67;;;6.90;99.60;;;;;;5099653;27;20423;-91
2022/01/30 00:19:21;;;;;;;17.58;3.38;;;7.00;99.80;;;;;;5115285;27;20051;-92
2022/01/30 00:21:52;;;;;;;17.25;3.65;;;6.90;99.70;;;;;;5098447;27;20526;-92
2022/01/30 00:24:32;;;;;;;22.77;4.20;;;7.00;99.70;;;;;;5098602;27;20054;-92
2022/01/30 00:26:58;;;;;;;17.23;3.28;;;7.00;99.60;;;;;;5098485;27;20127;-91
2022/01/30 00:29:23;;;;;;;19.27;4.00;;;7.00;99.80;;;;;;5115005;27;20139;-91
2022/01/30 00:31:49;;;;;;;20.15;3.67;;;7.00;99.20;;;;;;5115497;27;20055;-91
2022/01/30 00:34:15;;;;;;;19.60;3.45;;;7.10;99.40;;;;;;5115176;27;20051;-91
2022/01/30 00:36:41;;;;;;;22.13;4.00;;;7.10;99.40;;;;;;5115465;27;20051;-92
2022/01/30 00:39:06;;;;;;;20.40;4.07;;;7.10;99.40;;;;;;5098048;27;20047;-92
2022/01/30 00:41:32;;;;;;;25.40;4.93;;;7.00;99.40;;;;;;5115102;27;20059;-92
2022/01/30 00:43:57;;;;;;;20.63;3.40;;;7.00;99.20;;;;;;5097603;27;20051;-92
2022/01/30 00:46:23;;;;;;;20.42;3.65;;;7.00;99.30;;;;;;5097660;27;20051;-92
2022/01/30 00:48:49;;;;;;;20.00;3.25;;;6.90;99.10;;;;;;5114592;27;20053;-91
2022/01/30 00:51:18;;;;;;;22.50;3.88;;;6.90;99.30;;;;;;5097356;27;20122;-91
2022/01/30 00:53:44;;;;;;;21.45;3.30;;;6.90;99.40;;;;;;5114643;27;20047;-92
2022/01/30 00:56:10;;;;;;;19.90;3.72;;;6.90;99.40;;;;;;5114415;27;20082;-92
2022/01/30 00:58:35;;;;;;;17.90;3.47;;;6.90;99.40;;;;;;5096584;28;20499;-91
2022/01/30 01:01:01;;;;;;;14.65;2.88;;;6.80;99.40;;;;;;5114025;27;20046;-92
2022/01/30 01:03:27;;;;;;;18.40;3.83;;;6.80;99.60;;;;;;5114464;27;20054;-92
2022/01/30 01:05:52;;;;;;;23.42;3.70;;;6.80;99.70;;;;;;5114591;27;20156;-92
2022/01/30 01:08:29;;;;;;;19.92;3.83;;;6.70;99.80;;;;;;5114874;27;20039;-92
2022/01/30 01:11:12;;;;;;;18.95;3.75;;;6.80;99.90;;;;;;5114531;27;20051;-92
2022/01/30 01:24:05;;;;;;;17.02;3.33;;;6.90;99.90;;;;;;5113747;27;20047;-92
2022/01/30 01:26:31;;;;;;;13.82;3.08;;;6.90;99.90;;;;;;5114574;27;20540;-92
2022/01/30 01:28:57;;;;;;;18.90;3.25;;;6.80;99.90;;;;;;5097236;27;20088;-92
2022/01/30 01:31:23;;;;;;;16.30;3.15;;;6.80;99.90;;;;;;5097304;27;20043;-92
2022/01/30 01:36:34;;;;;;;18.27;3.88;;;6.70;99.90;;;;;;5114213;27;20047;-92
2022/01/30 01:38:59;;;;;;;21.65;4.45;;;6.60;99.90;;;;;;5096991;28;20392;-92
2022/01/30 01:41:26;;;;;;;20.98;5.40;;;6.50;99.90;;;;;;5114697;28;20059;-92
2022/01/30 01:43:52;;;;;;;21.85;4.63;;;6.50;99.90;;;;;;5097265;28;20051;-91
2022/01/30 01:46:23;;;;;;;16.65;3.63;;;6.50;99.90;;;;;;5114296;27;20415;-92
2022/01/30 01:48:51;;;;;;;17.08;3.42;;;6.40;99.90;;;;;;5097364;28;20039;-91
2022/01/30 01:51:21;;;;;;;23.88;4.32;;;6.40;99.90;;;;;;5113886;28;20050;-92
2022/01/30 01:53:50;;;;;;;21.33;3.42;;;6.40;99.90;;;;;;5114195;28;20040;-92
2022/01/30 01:56:16;;;;;;;20.08;4.18;;;6.40;99.90;;;;;;5096683;28;20058;-92
2022/01/30 01:58:42;;;;;;;21.88;3.83;;;6.40;99.90;;;;;;5097200;28;20039;-92
2022/01/30 02:01:08;;;;;;;22.02;4.18;;;6.30;99.90;;;;;;5113724;28;20495;-92
2022/01/30 02:03:36;;;;;;;21.52;3.90;;;6.30;99.90;;;;;;5096909;28;20057;-92
2022/01/30 02:06:04;;;;;;;26.40;4.10;;;6.30;99.90;;;;;;5114011;28;20074;-91
2022/01/30 02:08:45;;;;;;;15.27;2.95;;;6.30;99.90;;;;;;5114392;28;20065;-92
2022/01/30 02:11:26;;;;;;;17.95;3.58;;;6.30;99.90;;;;;;5119239;27;20129;-92
2022/01/30 02:14:41;;;;;;;17.33;3.08;;;6.30;99.90;;;;;;5102052;27;20138;-92
2022/01/30 02:27:40;;;;;;;19.45;3.35;;;6.40;99.90;;;;;;5117777;27;20096;-92
2022/01/30 02:30:13;;;;;;;19.55;3.40;;;6.40;99.90;;;;;;5117567;27;20054;-91
2022/01/30 02:32:39;;;;;;;16.95;4.25;;;6.40;99.90;;;;;;5101343;27;20083;-92
2022/01/30 02:35:05;;;;;;;21.60;3.83;;;6.40;99.90;;;;;;5116908;27;20585;-92
2022/01/30 02:37:30;;;;;;;19.60;3.65;;;6.40;99.90;;;;;;5100137;27;20051;-92
2022/01/30 02:39:56;;;;;;;18.45;3.72;;;6.40;99.90;;;;;;5100199;27;20065;-91
2022/01/30 02:42:25;;;;;;;23.60;3.85;;;6.40;99.90;;;;;;5117340;27;20096;-91
2022/01/30 02:44:55;;;;;;;25.17;3.67;;;6.40;99.90;;;;;;5117377;27;20078;-92
2022/01/30 02:52:37;;;;;;;23.85;4.80;;;6.50;99.90;;;;;;5117406;27;20051;-92
2022/01/30 02:55:04;;;;;;;21.83;4.07;;;6.50;99.90;;;;;;5116422;27;20494;-92
2022/01/30 02:57:30;;;;;;;22.10;4.28;;;6.50;99.90;;;;;;5099888;27;20054;-92
2022/01/30 02:59:56;;;;;;;22.35;4.88;;;6.50;99.90;;;;;;5116653;27;20100;-92
2022/01/30 03:02:22;;;;;;;20.58;3.92;;;6.50;99.90;;;;;;5116904;27;20070;-92
2022/01/30 03:04:47;;;;;;;24.27;4.10;;;6.50;99.90;;;;;;5117228;27;20039;-92
2022/01/30 03:07:13;;;;;;;22.42;4.93;;;6.50;99.90;;;;;;5117160;27;20073;-92
2022/01/30 03:09:38;;;;;;;26.25;4.13;;;6.50;99.90;;;;;;5099940;27;20035;-92
2022/01/30 03:12:05;;;;;;;25.20;4.93;;;6.50;99.90;;;;;;5116742;27;20487;-92
2022/01/30 03:14:30;;;;;;;22.50;4.32;;;6.50;99.90;;;;;;5116352;27;20499;-92
2022/01/30 03:16:56;;;;;;;23.75;4.05;;;6.60;99.90;;;;;;5116261;27;20188;-91
2022/01/30 03:19:22;;;;;;;25.90;4.90;;;6.60;99.90;;;;;;5116344;27;20434;-92
2022/01/30 03:21:47;;;;;;;23.27;4.60;;;6.60;99.90;;;;;;5115569;27;20047;-92
2022/01/30 03:24:13;;;;;;;25.45;4.97;;;6.70;99.90;;;;;;5116517;27;20427;-92
2022/01/30 03:26:40;;;;;;;22.52;4.55;;;6.70;99.90;;;;;;5099630;27;20035;-91
2022/01/30 03:29:08;;;;;;;23.35;4.80;;;6.70;99.90;;;;;;5099486;27;20050;-92
2022/01/30 03:31:39;;;;;;;20.50;4.28;;;6.70;99.90;;;;;;5099541;27;20043;-92
2022/01/30 03:34:07;;;;;;;20.08;3.58;;;6.70;99.90;;;;;;5116072;27;20047;-93
2022/01/30 03:36:33;;;;;;;23.17;5.07;;;6.70;99.90;;;;;;5098561;27;20495;-92
2022/01/30 03:38:59;;;;;;;21.35;4.80;;;6.70;99.90;;;;;;5115769;27;20074;-92
2022/01/30 03:41:28;;;;;;;21.88;3.55;;;6.70;99.90;;;;;;5099343;27;20085;-92
2022/01/30 03:43:54;;;;;;;22.70;4.70;;;6.70;99.90;;;;;;5116401;27;20407;-92
2022/01/30 03:46:21;;;;;;;21.17;5.25;;;6.70;99.90;;;;;;5115930;27;20047;-92
2022/01/30 03:48:47;;;;;;;19.80;3.63;;;6.70;99.90;;;;;;5116153;27;20126;-92
2022/01/30 03:51:13;;;;;;;24.55;4.22;;;6.70;99.90;;;;;;5098934;27;20031;-92
2022/01/30 03:53:38;;;;;;;19.85;3.95;;;6.70;99.90;;;;;;5099195;27;20571;-91
2022/01/30 03:56:04;;;;;;;22.73;4.65;;;6.70;99.90;;;;;;5115677;27;20130;-92
2022/01/30 03:58:31;;;;;;;20.00;4.55;;;6.60;99.90;;;;;;5115667;27;20043;-92
2022/01/30 04:00:56;;;;;;;21.30;5.22;;;6.60;99.90;;;;;;5115421;27;20093;-92
2022/01/30 04:03:22;;;;;;;27.10;4.68;;;6.60;99.90;;;;;;5116165;27;20090;-91
2022/01/30 04:05:48;;;;;;;23.05;4.55;;;6.50;99.90;;;;;;5099124;27;20054;-92
2022/01/30 04:08:14;;;;;;;22.70;4.82;;;6.50;99.90;;;;;;5099057;27;20130;-92
2022/01/30 04:10:40;;;;;;;22.83;5.07;;;6.50;99.90;;;;;;5098493;27;20242;-92
2022/01/30 04:13:06;;;;;;;24.63;4.80;;;6.40;99.90;;;;;;5098549;27;20055;-91
2022/01/30 04:15:32;;;;;;;23.52;5.30;;;6.40;99.90;;;;;;5098030;27;20061;-91
2022/01/30 04:17:58;;;;;;;25.83;5.57;;;6.40;99.90;;;;;;5114667;27;20058;-92
2022/01/30 04:20:23;;;;;;;21.90;5.18;;;6.40;99.90;;;;;;5098144;27;20129;-92
2022/01/30 04:22:49;;;;;;;33.15;5.13;;;6.40;99.90;;;;;;5115418;27;20088;-92
2022/01/30 04:25:15;;;;;;;27.88;5.13;;;6.40;99.90;;;;;;5115905;27;20423;-90
2022/01/30 04:27:40;;;;;;;24.67;5.07;;;6.40;99.90;;;;;;5115429;27;20410;-92
2022/01/30 04:30:08;;;;;;;29.58;4.55;;;6.40;99.90;;;;;;5115290;27;20035;-92
2022/01/30 04:32:36;;;;;;;33.20;6.00;;;6.40;99.90;;;;;;5115286;27;20073;-92
2022/01/30 04:35:10;;;;;;;28.25;5.28;;;6.50;99.90;;;;;;5098323;27;20674;-92
2022/01/30 04:52:04;;;;;;;32.10;6.18;;;6.50;99.90;;;;;;5077490;27;20043;-92
2022/01/30 05:07:44;;;;;;;24.00;5.85;;;6.30;99.90;;;;;;5052846;28;20098;-92
2022/01/30 05:10:10;;;;;;;25.35;5.45;;;6.30;99.90;;;;;;5052782;28;20470;-92
2022/01/30 05:12:50;;;;;;;34.53;5.20;;;6.20;99.90;;;;;;5035874;28;20051;-92
2022/01/30 05:15:18;;;;;;;22.58;5.10;;;6.20;99.90;;;;;;5036087;28;20053;-92
2022/01/30 05:17:44;;;;;;;22.70;5.07;;;6.20;99.90;;;;;;5066678;28;20058;-92
2022/01/30 05:20:10;;;;;;;25.58;4.68;;;6.20;99.90;;;;;;5072089;28;20055;-92
2022/01/30 05:22:36;;;;;;;31.25;6.07;;;6.20;99.90;;;;;;5072221;28;20052;-92
2022/01/30 05:25:03;;;;;;;37.08;7.53;;;6.20;99.90;;;;;;5095001;27;20077;-92
2022/01/30 05:27:29;;;;;;;30.98;6.97;;;6.20;99.90;;;;;;5117250;27;20051;-92
2022/01/30 05:29:55;;;;;;;30.63;5.43;;;6.20;99.90;;;;;;5134750;27;20169;-92
2022/01/30 05:32:21;;;;;;;23.92;5.63;;;6.20;99.90;;;;;;5117798;27;20074;-92
2022/01/30 05:34:47;;;;;;;34.03;6.80;;;6.30;99.90;;;;;;5153356;27;20070;-92
2022/01/30 05:37:17;;;;;;;26.05;6.15;;;6.30;99.90;;;;;;5117537;27;20126;-92
2022/01/30 05:39:43;;;;;;;33.25;6.43;;;6.30;99.90;;;;;;5134073;27;20122;-92
2022/01/30 05:42:09;;;;;;;31.60;7.43;;;6.30;99.90;;;;;;5134219;27;20137;-92
2022/01/30 05:44:48;;;;;;;36.03;7.43;;;6.30;99.90;;;;;;5133929;27;20039;-92
2022/01/30 05:47:22;;;;;;;39.47;6.72;;;6.30;99.90;;;;;;5134343;27;20525;-92
2022/01/30 05:49:48;;;;;;;41.33;6.72;;;6.30;99.90;;;;;;5134352;27;20046;-91
2022/01/30 05:52:14;;;;;;;33.22;6.72;;;6.30;99.90;;;;;;5134589;27;20054;-92
2022/01/30 05:54:40;;;;;;;36.85;7.25;;;6.30;99.90;;;;;;5134797;27;20050;-92
2022/01/30 05:57:05;;;;;;;31.20;7.13;;;6.30;99.90;;;;;;5117432;27;20042;-92
2022/01/30 05:59:31;;;;;;;30.38;7.00;;;6.30;99.90;;;;;;5134326;27;20138;-92
2022/01/30 06:01:56;;;;;;;37.20;6.80;;;6.40;99.90;;;;;;5133969;27;20042;-92
2022/01/30 06:04:22;;;;;;;41.80;7.75;;;6.30;99.90;;;;;;5117357;27;20128;-91
2022/01/30 06:06:51;;;;;;;35.70;7.10;;;6.30;99.90;;;;;;5134027;27;20072;-92
2022/01/30 06:11:42;;;;;;;33.67;6.53;;;6.20;99.90;;;;;;5134648;27;20042;-92
2022/01/30 06:14:08;;;;;;;28.40;6.30;;;6.10;99.90;;;;;;5134528;27;20050;-92
2022/01/30 06:16:34;;;;;;;33.92;6.47;;;6.00;99.90;;;;;;5116313;27;20057;-92
2022/01/30 06:19:00;;;;;;;33.10;6.53;;;6.00;99.90;;;;;;5133878;27;20049;-92
2022/01/30 06:21:25;;;;;;;31.95;5.90;;;6.00;99.90;;;;;;5117178;27;20050;-92
2022/01/30 06:23:51;;;;;;;34.80;6.60;;;6.00;99.90;;;;;;5108109;28;20100;-91
2022/01/30 06:26:17;;;;;;;40.50;6.97;;;6.00;99.90;;;;;;5076106;28;20582;-92
2022/01/30 06:28:43;;;;;;;34.88;7.72;;;6.00;99.90;;;;;;5092751;28;20035;-92
2022/01/30 06:31:08;;;;;;;37.08;7.55;;;6.00;99.90;;;;;;5093135;28;20417;-92
2022/01/30 06:33:34;;;;;;;35.00;6.88;;;6.00;99.90;;;;;;5076075;28;20047;-92
2022/01/30 06:35:59;;;;;;;32.40;7.88;;;6.00;99.90;;;;;;5092796;28;20136;-92
2022/01/30 06:38:25;;;;;;;38.80;6.95;;;6.00;99.90;;;;;;5092979;28;20054;-92
2022/01/30 06:40:50;;;;;;;37.20;6.65;;;6.00;99.90;;;;;;5092023;28;20048;-92
2022/01/30 06:43:16;;;;;;;33.90;6.65;;;5.90;99.90;;;;;;5075942;28;20092;-92
2022/01/30 06:45:42;;;;;;;40.95;8.43;;;5.90;99.90;;;;;;5092766;28;20047;-92
2022/01/30 06:48:09;;;;;;;37.33;6.78;;;5.90;99.90;;;;;;5092214;28;20048;-92
2022/01/30 06:50:34;;;;;;;37.67;6.72;;;5.90;99.90;;;;;;5092859;28;20048;-91
2022/01/30 06:53:00;;;;;;;38.45;9.00;;;5.90;99.90;;;;;;5092702;28;20050;-92
2022/01/30 06:55:25;;;;;;;34.88;6.65;;;5.90;99.90;;;;;;5076551;28;20055;-92
2022/01/30 06:57:51;;;;;;;29.98;6.28;;;6.00;99.90;;;;;;5096358;28;20419;-91
2022/01/30 07:00:17;;;;;;;34.28;7.10;;;6.00;99.90;;;;;;5095765;28;20079;-92
2022/01/30 07:02:42;;;;;;;41.03;6.45;;;6.00;99.90;;;;;;5095593;28;20043;-91
2022/01/30 07:05:08;;;;;;;40.22;8.45;;;6.10;99.90;;;;;;5096489;28;20116;-91
2022/01/30 07:07:34;;;;;;;36.25;7.93;;;6.10;99.90;;;;;;5079184;28;20184;-91
2022/01/30 07:10:00;;;;;;;32.72;6.80;;;6.10;99.90;;;;;;5095720;28;20504;-92
2022/01/30 07:12:26;;;;;;;32.00;7.15;;;6.10;99.90;;;;;;5079581;28;20507;-91
2022/01/30 07:14:52;;;;;;;38.75;6.70;;;6.10;99.90;;;;;;5079736;28;20078;-92
2022/01/30 07:17:17;;;;;;;40.22;7.97;;;6.10;99.90;;;;;;5102342;27;20038;-92
2022/01/30 07:19:43;;;;;;;39.85;8.32;;;6.20;99.90;;;;;;5136862;27;20057;-92
2022/01/30 07:22:08;;;;;;;30.75;6.88;;;6.20;99.90;;;;;;5137144;27;20047;-92
2022/01/30 07:24:34;;;;;;;37.92;7.80;;;6.20;99.90;;;;;;5137238;27;20043;-92
2022/01/30 07:26:59;;;;;;;37.30;8.15;;;6.20;99.90;;;;;;5136423;27;20046;-92
2022/01/30 07:29:25;;;;;;;41.15;7.78;;;6.20;99.90;;;;;;5119586;27;20046;-91
2022/01/30 07:31:51;;;;;;;32.25;7.70;;;6.20;99.90;;;;;;5119804;27;20046;-91
2022/01/30 07:34:16;;;;;;;37.33;6.97;;;6.20;99.90;;;;;;5137036;27;20055;-91
2022/01/30 07:36:43;;;;;;;37.05;7.50;;;6.20;99.90;;;;;;5119798;27;20057;-91
2022/01/30 07:39:15;;;;;;;34.75;7.47;;;6.30;99.90;;;;;;5136855;27;20051;-91
2022/01/30 07:41:42;;;;;;;28.77;7.07;;;6.30;99.90;;;;;;5119542;27;20046;-91
2022/01/30 07:44:07;;;;;;;34.85;7.00;;;6.30;99.90;;;;;;5119507;27;20295;-91
2022/01/30 07:46:33;;;;;;;37.38;6.97;;;6.30;99.90;;;;;;5118973;27;20042;-91
2022/01/30 07:48:59;;;;;;;39.50;7.65;;;6.30;99.90;;;;;;5118098;27;20043;-91
2022/01/30 07:51:25;;;;;;;37.47;8.52;;;6.40;99.90;;;;;;5118710;27;20552;-91
2022/01/30 07:53:50;;;;;;;38.30;7.63;;;6.40;99.90;;;;;;5136320;27;20046;-92
2022/01/30 07:56:16;;;;;;;28.52;6.93;;;6.40;99.90;;;;;;5119409;27;20043;-92
2022/01/30 07:58:43;;;;;;;28.23;6.68;;;6.40;99.90;;;;;;5136448;27;20501;-92
2022/01/30 08:01:08;;;;;;;38.28;8.77;;;6.50;99.90;;;;;;5135535;27;20082;-91
2022/01/30 08:03:34;;;;;;;40.17;7.38;;;6.50;99.90;;;;;;5136154;27;20093;-92
2022/01/30 08:05:59;;;;;;;37.15;8.25;;;6.50;99.90;;;;;;5136120;27;20046;-92
2022/01/30 08:08:25;;;;;;;32.92;6.72;;;6.50;99.90;;;;;;5135169;27;20046;-92
2022/01/30 08:10:50;;;;;;;39.78;7.32;;;6.50;99.90;;;;;;5135729;27;20654;-92
2022/01/30 08:13:16;;;;;;;39.35;8.13;;;6.50;99.90;;;;;;5154861;27;20046;-92
2022/01/30 08:15:46;;;;;;;37.47;8.27;;;6.60;99.90;;;;;;5154744;27;20051;-91
2022/01/30 08:18:11;;;;;;;39.80;8.82;;;6.60;99.90;;;;;;5134988;27;20058;-91
2022/01/30 08:20:37;;;;;;;35.40;8.00;;;6.60;99.90;;;;;;5135085;27;20051;-92
2022/01/30 08:23:11;;;;;;;39.75;7.70;;;6.60;99.90;;;;;;5134360;27;20403;-92
2022/01/30 08:25:37;;;;;;;36.38;7.30;;;6.70;99.90;;;;;;5118994;27;20046;-91
2022/01/30 08:28:03;;;;;;;33.83;8.23;;;6.70;99.90;;;;;;5123968;27;20046;-91
2022/01/30 08:30:29;;;;;;;43.25;9.30;;;6.70;99.90;;;;;;5114345;27;20040;-92
2022/01/30 08:32:54;;;;;;;37.72;7.30;;;6.70;99.90;;;;;;5115512;27;20123;-92
2022/01/30 08:35:20;;;;;;;33.58;7.28;;;6.80;99.90;;;;;;5114924;27;20523;-92
2022/01/30 08:37:47;;;;;;;35.08;8.15;;;6.70;99.90;;;;;;5115036;27;20047;-92
2022/01/30 08:40:18;;;;;;;38.92;8.40;;;6.80;99.90;;;;;;5114548;27;20047;-91
2022/01/30 08:42:46;;;;;;;40.28;7.57;;;6.80;99.90;;;;;;5114904;27;20048;-92
2022/01/30 08:45:13;;;;;;;31.92;7.32;;;6.80;99.90;;;;;;5115134;27;20045;-90
2022/01/30 08:47:42;;;;;;;34.15;7.43;;;6.80;99.90;;;;;;5114869;27;20419;-91
2022/01/30 08:50:09;;;;;;;32.92;7.18;;;6.90;99.90;;;;;;5114362;27;20039;-92
2022/01/30 08:52:35;;;;;;;35.58;7.07;;;6.80;99.90;;;;;;5097695;27;20043;-91
2022/01/30 08:55:02;;;;;;;36.40;7.53;;;6.90;99.90;;;;;;5114914;27;20120;-92
2022/01/30 08:57:28;;;;;;;35.20;7.57;;;6.90;99.90;;;;;;5114499;27;20039;-92
2022/01/30 08:59:54;;;;;;;29.65;6.97;;;7.00;99.90;;;;;;5114483;27;20521;-91
2022/01/30 09:02:19;;;;;;;33.25;7.35;;;7.00;99.40;;;;;;5114481;27;20047;-92
2022/01/30 09:04:45;;;;;;;32.60;6.82;;;7.00;99.30;;;;;;5097973;27;20047;-91
2022/01/30 09:07:11;;;;;;;31.67;8.13;;;7.10;99.00;;;;;;5114608;27;20050;-91
2022/01/30 09:09:37;;;;;;;32.25;7.43;;;7.10;99.00;;;;;;5113802;27;20035;-91
2022/01/30 09:12:05;;;;;;;29.55;6.40;;;7.10;98.10;;;;;;5114392;27;20072;-91
2022/01/30 09:14:31;;;;;;;39.40;8.30;;;7.10;97.90;;;;;;5113807;27;20058;-91
2022/01/30 09:16:56;;;;;;;35.17;8.10;;;7.20;98.10;;;;;;5113151;27;20043;-91
2022/01/30 09:19:22;;;;;;;35.03;7.18;;;7.20;97.40;;;;;;5112274;27;20061;-91
2022/01/30 09:21:48;;;;;;;38.17;8.57;;;7.20;97.00;;;;;;5113734;27;20043;-91
2022/01/30 09:24:14;;;;;;;32.97;8.10;;;7.20;97.10;;;;;;5097360;27;20415;-91
2022/01/30 09:26:39;;;;;;;35.13;7.78;;;7.20;96.70;;;;;;5096920;27;20476;-92
2022/01/30 09:29:05;;;;;;;37.20;8.52;;;7.30;96.50;;;;;;5113989;27;20529;-92
2022/01/30 09:31:31;;;;;;;34.95;7.45;;;7.30;96.50;;;;;;5114520;27;20047;-90
2022/01/30 09:33:56;;;;;;;32.75;7.97;;;7.40;96.60;;;;;;5097344;27;20564;-92
2022/01/30 09:36:22;;;;;;;33.88;9.00;;;7.50;96.70;;;;;;5114588;27;20089;-91
2022/01/30 09:38:47;;;;;;;40.50;7.85;;;7.60;96.50;;;;;;5113772;27;20043;-92
2022/01/30 09:41:14;;;;;;;38.65;7.13;;;7.70;96.00;;;;;;5113572;27;20047;-92
2022/01/30 09:43:40;;;;;;;30.30;6.65;;;7.70;95.70;;;;;;5096947;28;20043;-92
2022/01/30 09:46:06;;;;;;;32.63;7.63;;;7.70;95.50;;;;;;5110404;28;20051;-91
2022/01/30 09:48:35;;;;;;;32.15;6.70;;;7.70;95.40;;;;;;5114165;28;20463;-92
2022/01/30 09:51:07;;;;;;;36.80;7.45;;;7.80;95.30;;;;;;5113626;28;20039;-92
2022/01/30 09:53:34;;;;;;;27.83;6.85;;;7.80;95.10;;;;;;5097376;28;20039;-92
2022/01/30 09:56:03;;;;;;;32.58;6.80;;;7.90;95.30;;;;;;5097479;28;20441;-92
2022/01/30 09:58:29;;;;;;;29.65;7.15;;;7.90;95.50;;;;;;5085618;28;20046;-92
2022/01/30 10:00:54;;;;;;;40.72;10.82;;;8.00;95.70;;;;;;5103500;28;20050;-91
2022/01/30 10:03:26;;;;;;;32.65;7.88;;;8.10;95.70;;;;;;5099939;28;20044;-92
2022/01/30 10:06:13;;;;;;;31.30;7.43;;;8.20;95.70;;;;;;5102207;28;20039;-91
2022/01/30 10:08:45;;;;;;;32.42;7.35;;;8.20;94.50;;;;;;5104324;28;20036;-91
2022/01/30 10:11:28;;;;;;;35.35;7.80;;;8.30;95.20;;;;;;5086983;28;20624;-92
2022/01/30 10:14:04;;;;;;;;;;;8.40;94.80;;;;;;5104499;28;20093;-92
2022/01/30 10:16:37;;;;;;;32.88;6.93;;;8.40;94.40;;;;;;5107429;28;19915;-91
2022/01/30 10:19:11;;;;;;;35.53;7.80;;;8.50;94.80;;;;;;5102234;28;20052;-92
2022/01/30 10:21:37;;;;;;;33.05;9.02;;;8.60;94.70;;;;;;5076530;28;20054;-91
2022/01/30 10:24:21;;;;;;;33.85;7.55;;;8.70;94.60;;;;;;5095331;27;20059;-92
2022/01/30 10:26:46;;;;;;;44.15;7.90;;;8.90;93.60;;;;;;5123900;27;20427;-92
2022/01/30 10:29:18;;;;;;;36.35;8.00;;;8.90;94.00;;;;;;5134793;27;20043;-92
2022/01/30 10:32:15;;;;;;;39.05;8.40;;;8.80;93.50;;;;;;5132237;27;20046;-92
2022/01/30 10:34:41;;;;;;;35.38;7.35;;;8.90;93.20;;;;;;5139201;27;20191;-91
2022/01/30 10:37:21;;;;;;;28.73;6.65;;;9.00;93.10;;;;;;5116748;27;20115;-92
2022/01/30 10:39:53;;;;;;;31.52;7.35;;;9.10;92.90;;;;;;5120541;27;20076;-92
2022/01/30 10:42:39;;;;;;;32.53;7.43;;;9.20;92.70;;;;;;5137983;27;20050;-91
2022/01/30 10:45:07;;;;;;;36.53;7.97;;;9.30;92.40;;;;;;5137515;27;20102;-91
2022/01/30 10:47:35;;;;;;;31.90;6.97;;;9.40;92.80;;;;;;5137530;27;20094;-91
2022/01/30 10:50:01;;;;;;;34.60;8.75;;;9.50;92.80;;;;;;5118719;27;20818;-91
2022/01/30 10:52:26;;;;;;;33.10;8.43;;;9.60;92.30;;;;;;5136707;27;20080;-92
2022/01/30 10:55:05;;;;;;;35.22;8.43;;;9.80;91.90;;;;;;5120462;27;20065;-91
2022/01/30 10:57:39;;;;;;;30.60;7.38;;;9.90;91.00;;;;;;5119930;27;20076;-91
2022/01/30 11:00:06;;;;;;;35.33;8.13;;;10.00;91.00;;;;;;5136440;27;20043;-91
2022/01/30 11:02:37;;;;;;;32.65;8.77;;;10.10;91.00;;;;;;5136918;27;20043;-92
2022/01/30 11:05:07;;;;;;;34.13;8.23;;;10.20;90.60;;;;;;5137196;27;20407;-91
2022/01/30 11:07:35;;;;;;;35.70;8.93;;;10.30;88.80;;;;;;5119862;27;20402;-92
2022/01/30 11:10:20;;;;;;;32.60;8.25;;;10.40;88.20;;;;;;5118890;27;20049;-92
2022/01/30 11:12:56;;;;;;;31.10;8.13;;;10.50;88.50;;;;;;5119094;27;20047;-92
2022/01/30 11:15:35;;;;;;;36.65;8.32;;;10.60;89.60;;;;;;5137150;27;20442;-92
2022/01/30 11:18:05;;;;;;;34.78;8.82;;;10.70;88.90;;;;;;5136111;27;20047;-92
2022/01/30 11:20:34;;;;;;;35.08;8.85;;;10.70;87.80;;;;;;5137015;27;20129;-92
2022/01/30 11:23:03;;;;;;;36.47;9.38;;;10.70;86.70;;;;;;5120129;27;20098;-92
2022/01/30 11:25:33;;;;;;;36.85;9.35;;;10.70;86.80;;;;;;5119536;27;20510;-92
2022/01/30 11:28:04;;;;;;;37.53;9.05;;;10.70;86.90;;;;;;5119240;27;20046;-92
2022/01/30 11:30:33;;;;;;;38.03;10.32;;;10.70;85.50;;;;;;5136149;27;20049;-92
2022/01/30 11:33:00;;;;;;;34.65;9.48;;;10.60;85.70;;;;;;5119920;27;20051;-92
2022/01/30 11:35:26;;;;;;;44.33;8.73;;;10.60;85.70;;;;;;5136920;27;20099;-92
2022/01/30 11:37:52;;;;;;;33.50;9.13;;;10.50;85.60;;;;;;5136499;27;20047;-92
2022/01/30 11:40:20;;;;;;;36.17;8.90;;;10.40;85.60;;;;;;5136665;27;20138;-92
2022/01/30 11:42:51;;;;;;;33.28;8.40;;;10.30;84.80;;;;;;5118531;27;20046;-92
2022/01/30 11:45:27;;;;;;;36.47;8.00;;;10.30;85.40;;;;;;5136830;27;20050;-91
2022/01/30 11:48:09;;;;;;;29.60;7.32;;;10.40;84.90;;;;;;5136412;27;20507;-92
2022/01/30 11:50:35;;;;;;;39.53;8.63;;;10.50;82.90;;;;;;5135675;27;20042;-92
2022/01/30 11:53:02;;;;;;;28.45;7.43;;;10.50;83.30;;;;;;5119058;27;20088;-92
2022/01/30 11:55:49;;;;;;;37.67;7.97;;;10.50;82.30;;;;;;5136659;27;20043;-92
2022/01/30 11:58:30;;;;;;;35.28;8.70;;;10.50;79.10;;;;;;5136532;27;20038;-92
2022/01/30 12:00:57;;;;;;;28.02;6.93;;;10.60;79.40;;;;;;5119041;27;20051;-92
2022/01/30 12:03:25;;;;;;;26.83;7.32;;;10.50;78.60;;;;;;5119175;27;20054;-92
2022/01/30 12:05:52;;;;;;;28.33;7.13;;;10.70;78.80;;;;;;5136341;27;20050;-92
2022/01/30 12:08:44;;;;;;;29.17;7.13;;;10.90;79.60;;;;;;5119154;27;20042;-92
2022/01/30 12:11:37;;;;;;;27.25;7.22;;;11.20;80.10;;;;;;5118084;27;20122;-92
2022/01/30 12:14:30;;;;;;;27.15;7.43;;;11.60;77.90;;;;;;5118817;27;20043;-92
2022/01/30 12:17:00;;;;;;;27.58;6.90;;;11.90;77.20;;;;;;5134646;27;20159;-93
2022/01/30 12:19:37;;;;;;;30.35;7.90;;;12.30;77.10;;;;;;5135084;27;20078;-93
2022/01/30 12:22:18;;;;;;;27.88;7.63;;;12.60;75.90;;;;;;5118444;27;20050;-93
2022/01/30 12:24:49;;;;;;;29.38;8.05;;;12.70;72.10;;;;;;5118633;27;20050;-92
2022/01/30 12:27:16;;;;;;;32.10;7.55;;;12.90;73.80;;;;;;5135546;27;20042;-93
2022/01/30 12:29:45;;;;;;;27.75;8.88;;;12.90;72.10;;;;;;5135528;27;20448;-93
2022/01/30 12:32:20;;;;;;;27.55;7.47;;;12.80;69.00;;;;;;5117972;27;20047;-93
2022/01/30 12:34:55;;;;;;;28.92;7.28;;;13.00;71.00;;;;;;5135766;27;20534;-93
2022/01/30 12:37:25;;;;;;;31.65;7.60;;;13.50;70.00;;;;;;5135661;27;20050;-93
2022/01/30 12:39:52;;;;;;;27.90;6.97;;;14.00;67.60;;;;;;5117534;27;20054;-90
2022/01/30 12:42:19;;;;;;;30.50;7.78;;;14.20;65.50;;;;;;5117445;27;20043;-91
2022/01/30 12:44:46;;;;;;;27.27;6.95;;;14.80;65.40;;;;;;5135480;27;20074;-90
2022/01/30 12:47:13;;;;;;;27.90;6.90;;;15.70;65.90;;;;;;5135573;27;20437;-90
2022/01/30 12:49:49;;;;;;;24.83;6.40;;;16.60;64.00;;;;;;5135099;27;20058;-91
2022/01/30 12:54:55;;;;;;;22.73;6.47;;;17.80;55.10;;;;;;5113080;27;20051;-90
2022/01/30 12:57:21;;;;;;;19.45;6.28;;;18.10;54.50;;;;;;5098076;27;20407;-90
2022/01/30 12:59:54;;;;;;;23.25;6.85;;;18.70;55.50;;;;;;5114559;27;20507;-90
2022/01/30 13:02:29;;;;;;;19.65;6.15;;;19.50;55.50;;;;;;5097936;27;20388;-90
2022/01/30 13:05:12;;;;;;;21.70;6.18;;;20.20;53.80;;;;;;5049163;28;20056;-91
2022/01/30 13:07:38;;;;;;;24.60;6.15;;;20.90;53.10;;;;;;5006094;28;20533;-91
2022/01/30 13:10:15;;;;;;;22.40;5.85;;;21.30;50.00;;;;;;5039414;28;20079;-91
2022/01/30 13:12:42;;;;;;;21.67;6.30;;;21.50;49.30;;;;;;5049526;28;20079;-91
2022/01/30 13:15:10;;;;;;;24.42;5.70;;;21.20;47.90;;;;;;5049528;28;20075;-91
2022/01/30 13:17:36;;;;;;;21.85;6.75;;;20.60;47.10;;;;;;5043432;28;20109;-91
2022/01/30 13:20:04;;;;;;;24.52;6.72;;;20.10;48.20;;;;;;5023097;28;20053;-91
2022/01/30 13:22:34;;;;;;;22.85;6.53;;;19.50;47.00;;;;;;5042172;28;20491;-91
2022/01/30 13:25:03;;;;;;;24.50;6.13;;;19.00;47.50;;;;;;5039030;28;20595;-91
2022/01/30 13:27:29;;;;;;;22.30;6.53;;;18.60;47.20;;;;;;5018172;28;20045;-91
2022/01/30 13:29:55;;;;;;;22.35;5.78;;;18.20;48.00;;;;;;5041501;28;20052;-92
2022/01/30 13:32:24;;;;;;;23.75;6.57;;;18.50;49.60;;;;;;5014993;28;20675;-92
2022/01/30 13:34:50;;;;;;;20.90;6.43;;;19.00;49.50;;;;;;5048682;28;20049;-93
2022/01/30 13:37:19;;;;;;;21.70;6.05;;;19.70;48.30;;;;;;5048967;28;20048;-92
2022/01/30 13:47:41;;;;;;;22.38;6.47;;;22.00;45.80;;;;;;5113832;28;20047;-91
2022/01/30 13:50:17;;;;;;;19.67;6.15;;;22.30;44.60;;;;;;5113625;27;20043;-92
2022/01/30 13:52:44;;;;;;;22.00;6.10;;;21.90;42.70;;;;;;5113422;28;20039;-92
2022/01/30 13:55:09;;;;;;;23.75;6.55;;;21.20;44.00;;;;;;5114008;28;20058;-93
2022/01/30 13:57:37;;;;;;;23.80;7.03;;;20.40;44.90;;;;;;5096831;28;20039;-91
2022/01/30 14:00:13;;;;;;;20.50;6.00;;;20.10;45.20;;;;;;5112995;28;20100;-91
2022/01/30 14:03:00;;;;;;;22.02;5.72;;;20.10;43.90;;;;;;5113495;28;20039;-92